Smith Hill, Texas
Current Conditions -  °F | °C
As of 11:53 AM on Thursday 23 Oct 2014 (Local Time) from KTXK Reporting Station
Clear Clear  
Wind Chill: 63°   Ceiling: Unl
Heat Index: 63°   Visibility: 10mi
Dew Point: 50°   Wind: 6mph
Humidity: 63%   Direction: 130°SE
Pressure: 30.2"   Gusts: NA
Location:  33.474°N, 94.2882°W
Report Text: KTXK 231653Z 13005KT 10SM CLR 17/10 A3020 RMK AO2 SLP222 T01720100
Loading
Personal Weather Stations






























Interactive Weather Map
Tropical Storm Tracking
New forecast layout! Learn more

10-Day Weather Forecast

Advertisements
Track Severe Weather on mobile